createdAt,value
2019-02-18T00:00:02.783Z,7.47
2019-02-18T00:02:32.080Z,7.73
2019-02-18T00:05:01.329Z,7.10
2019-02-18T00:07:30.799Z,8.23
2019-02-18T00:09:59.845Z,7.50
2019-02-18T00:12:29.111Z,7.23
2019-02-18T00:14:58.559Z,7.03
2019-02-18T00:17:28.357Z,6.83
2019-02-18T00:19:58.050Z,8.10
2019-02-18T00:22:27.525Z,7.90
2019-02-18T00:24:57.078Z,7.63
2019-02-18T00:27:26.514Z,7.80
2019-02-18T00:29:56.490Z,6.90
2019-02-18T00:32:25.807Z,7.87
2019-02-18T00:34:55.060Z,7.80
2019-02-18T00:37:24.913Z,7.70
2019-02-18T00:39:54.653Z,6.93
2019-02-18T00:42:25.019Z,8.17
2019-02-18T00:44:54.684Z,7.60
2019-02-18T00:47:23.978Z,7.63
2019-02-18T00:49:52.978Z,7.10
2019-02-18T00:52:22.230Z,7.23
2019-02-18T00:54:51.353Z,8.03
2019-02-18T00:57:20.592Z,7.33
2019-02-18T00:59:49.965Z,7.63
2019-02-18T01:02:19.736Z,7.50
2019-02-18T01:04:49.195Z,7.23
2019-02-18T01:07:18.408Z,6.33
2019-02-18T01:09:48.097Z,7.07
2019-02-18T01:12:17.447Z,15.50
2019-02-18T01:15:02.320Z,9.13
2019-02-18T01:17:31.473Z,9.37
2019-02-18T01:20:00.530Z,12.40
2019-02-18T01:22:30.026Z,8.60
2019-02-18T01:24:59.424Z,12.03
2019-02-18T01:27:28.659Z,11.57
2019-02-18T01:29:57.995Z,8.33
2019-02-18T01:32:27.358Z,6.83
2019-02-18T01:34:56.414Z,9.93
2019-02-18T01:37:25.582Z,10.53
2019-02-18T01:39:54.653Z,7.77
2019-02-18T01:42:24.037Z,6.50
2019-02-18T01:44:53.531Z,7.20
2019-02-18T01:47:22.523Z,7.43
2019-02-18T01:49:51.481Z,7.43
2019-02-18T01:52:20.569Z,7.73
2019-02-18T01:54:50.082Z,6.47
2019-02-18T01:57:19.071Z,7.53
2019-02-18T01:59:48.616Z,7.73
2019-02-18T02:02:17.692Z,7.47
2019-02-18T02:04:46.691Z,7.37
2019-02-18T02:07:15.755Z,6.73
2019-02-18T02:09:44.794Z,6.80
2019-02-18T02:12:13.884Z,6.90
2019-02-18T02:14:42.918Z,7.07
2019-02-18T02:17:12.368Z,6.97
2019-02-18T02:19:41.296Z,7.03
2019-02-18T02:22:10.364Z,6.97
2019-02-18T02:24:39.336Z,7.20
2019-02-18T02:27:08.753Z,7.40
2019-02-18T02:29:38.229Z,7.47
2019-02-18T02:32:07.371Z,7.33
2019-02-18T02:34:36.487Z,7.27
2019-02-18T02:37:05.521Z,7.00
2019-02-18T02:39:34.707Z,7.13
2019-02-18T02:42:04.183Z,6.73
2019-02-18T02:44:33.610Z,6.93
2019-02-18T02:47:02.700Z,6.93
2019-02-18T02:49:31.819Z,6.73
2019-02-18T02:52:00.842Z,6.60
2019-02-18T02:54:29.832Z,6.47
2019-02-18T02:56:58.706Z,6.17
2019-02-18T02:59:27.956Z,6.63
2019-02-18T03:01:57.174Z,6.67
2019-02-18T03:04:26.228Z,6.80
2019-02-18T03:06:55.276Z,7.10
2019-02-18T03:09:24.429Z,7.07
2019-02-18T03:11:53.390Z,6.50
2019-02-18T03:14:23.022Z,7.17
2019-02-18T03:16:52.363Z,7.07
2019-02-18T03:19:21.483Z,6.67
2019-02-18T03:21:50.520Z,6.57
2019-02-18T03:24:19.693Z,7.10
2019-02-18T03:26:49.145Z,7.13
2019-02-18T03:29:58.872Z,6.43
2019-02-18T03:32:29.606Z,6.87
2019-02-18T03:35:00.611Z,6.87
2019-02-18T03:37:30.360Z,6.57
2019-02-18T03:39:59.388Z,6.90
2019-02-18T03:42:28.393Z,7.00
2019-02-18T03:44:57.749Z,6.83
2019-02-18T03:47:27.085Z,7.13
2019-02-18T03:49:56.130Z,6.47
2019-02-18T03:52:25.352Z,7.20
2019-02-18T03:54:54.806Z,7.10
2019-02-18T03:57:24.240Z,7.13
2019-02-18T03:59:53.395Z,7.20
2019-02-18T04:02:22.637Z,6.57
2019-02-18T04:04:51.681Z,6.77
2019-02-18T04:07:20.833Z,6.87
2019-02-18T04:09:50.529Z,6.67
2019-02-18T04:12:19.684Z,6.83
2019-02-18T04:14:49.085Z,7.20
2019-02-18T04:17:19.181Z,7.03
2019-02-18T04:19:49.012Z,6.67
2019-02-18T04:22:18.140Z,6.77
2019-02-18T04:24:47.655Z,7.03
2019-02-18T04:27:16.833Z,5.90
2019-02-18T04:29:45.953Z,8.60
2019-02-18T04:32:15.081Z,6.60
2019-02-18T04:34:44.472Z,6.97
2019-02-18T04:37:13.513Z,6.83
2019-02-18T04:39:42.639Z,6.27
2019-02-18T04:42:12.086Z,6.37
2019-02-18T04:44:41.988Z,6.30
2019-02-18T04:47:11.050Z,6.97
2019-02-18T04:49:40.553Z,7.00
2019-02-18T04:52:09.525Z,7.00
2019-02-18T04:54:38.524Z,7.07
2019-02-18T04:57:07.635Z,6.27
2019-02-18T04:59:36.975Z,6.20
2019-02-18T05:02:06.336Z,7.10
2019-02-18T05:04:35.407Z,6.50
2019-02-18T05:07:05.163Z,6.70
2019-02-18T05:09:34.608Z,6.10
2019-02-18T05:12:03.684Z,6.80
2019-02-18T05:14:32.674Z,6.33
2019-02-18T05:17:01.846Z,6.27
2019-02-18T05:19:31.409Z,6.40
2019-02-18T05:22:00.766Z,6.93
2019-02-18T05:24:30.221Z,6.87
2019-02-18T05:26:59.460Z,6.53
2019-02-18T05:29:29.514Z,6.53
2019-02-18T05:31:59.043Z,6.67
2019-02-18T05:34:28.229Z,6.13
2019-02-18T05:36:57.305Z,6.53
2019-02-18T05:39:26.388Z,6.73
2019-02-18T05:41:55.471Z,6.80
2019-02-18T05:44:24.586Z,7.00
2019-02-18T05:46:53.647Z,7.40
2019-02-18T05:49:22.709Z,6.60
2019-02-18T05:51:52.115Z,6.73
2019-02-18T05:54:21.500Z,7.37
2019-02-18T05:56:51.064Z,6.83
2019-02-18T05:59:20.169Z,7.90
2019-02-18T06:01:49.256Z,7.43
2019-02-18T06:04:18.249Z,6.77
2019-02-18T06:06:47.526Z,6.80
2019-02-18T06:09:16.433Z,6.33
2019-02-18T06:11:45.489Z,7.57
2019-02-18T06:14:14.555Z,7.77
2019-02-18T06:16:43.546Z,7.57
2019-02-18T06:19:31.774Z,7.20
2019-02-18T06:22:00.865Z,7.20
2019-02-18T06:24:30.236Z,7.47
2019-02-18T06:26:59.304Z,7.40
2019-02-18T06:29:28.310Z,8.30
2019-02-18T06:31:57.668Z,7.43
2019-02-18T06:34:27.086Z,7.97
2019-02-18T06:36:56.465Z,7.37
2019-02-18T06:39:26.040Z,7.83
2019-02-18T06:41:55.413Z,10.10
2019-02-18T06:45:01.995Z,7.20
2019-02-18T06:47:31.350Z,8.63
2019-02-18T06:50:00.415Z,7.87
2019-02-18T06:52:29.711Z,7.87
2019-02-18T06:54:59.249Z,9.13
2019-02-18T06:57:34.035Z,9.13
2019-02-18T07:00:19.135Z,12.23
2019-02-18T07:03:05.742Z,10.83
2019-02-18T07:05:50.402Z,10.43
2019-02-18T07:08:35.644Z,15.23
2019-02-18T07:11:08.969Z,9.77
2019-02-18T07:13:38.180Z,8.60
2019-02-18T07:16:07.325Z,8.23
2019-02-18T07:18:36.657Z,7.67
2019-02-18T07:21:05.702Z,7.27
2019-02-18T07:23:34.584Z,7.33
2019-02-18T07:26:04.286Z,7.83
2019-02-18T07:28:33.683Z,8.77
2019-02-18T07:31:02.592Z,7.67
2019-02-18T07:33:31.564Z,7.63
2019-02-18T07:36:00.571Z,7.93
2019-02-18T07:38:29.533Z,8.77
2019-02-18T07:40:58.570Z,8.07
2019-02-18T07:43:27.837Z,7.53
2019-02-18T07:45:56.934Z,8.87
2019-02-18T07:48:25.897Z,8.93
2019-02-18T07:50:54.862Z,7.80
2019-02-18T07:53:23.835Z,8.17
2019-02-18T07:55:53.115Z,6.80
2019-02-18T07:58:22.023Z,7.30
2019-02-18T08:00:51.843Z,7.90
2019-02-18T08:03:21.240Z,7.00
2019-02-18T08:05:50.246Z,6.90
2019-02-18T08:08:19.201Z,6.97
2019-02-18T08:10:49.180Z,7.47
2019-02-18T08:13:18.628Z,6.33
2019-02-18T08:15:48.019Z,7.60
2019-02-18T08:18:16.948Z,7.47
2019-02-18T08:20:46.043Z,7.67
2019-02-18T08:23:15.097Z,7.17
2019-02-18T08:25:44.206Z,6.77
2019-02-18T08:28:13.509Z,7.03
2019-02-18T08:30:43.108Z,6.77
2019-02-18T08:33:12.198Z,7.00
2019-02-18T08:35:41.647Z,7.37
2019-02-18T08:38:11.017Z,8.80
2019-02-18T08:40:40.691Z,7.53
2019-02-18T08:43:10.202Z,7.80
2019-02-18T08:45:39.269Z,7.70
2019-02-18T08:48:08.270Z,7.67
2019-02-18T08:50:37.297Z,7.47
2019-02-18T08:53:06.200Z,7.30
2019-02-18T08:55:36.045Z,6.87
2019-02-18T08:58:05.525Z,7.07
2019-02-18T09:00:34.646Z,6.87
2019-02-18T09:03:04.255Z,7.73
2019-02-18T09:05:33.322Z,7.47
2019-02-18T09:08:02.383Z,7.13
2019-02-18T09:10:33.868Z,7.20
2019-02-18T09:13:03.031Z,7.40
2019-02-18T09:15:32.053Z,6.67
2019-02-18T09:18:01.687Z,7.17
2019-02-18T09:20:31.058Z,7.33
2019-02-18T09:23:10.558Z,6.70
2019-02-18T09:25:48.426Z,7.03
2019-02-18T09:28:17.578Z,6.87
2019-02-18T09:30:50.135Z,7.20
2019-02-18T09:33:19.305Z,7.00
2019-02-18T09:35:48.572Z,7.10
2019-02-18T09:38:25.151Z,6.90
2019-02-18T09:40:51.505Z,7.00
2019-02-18T09:43:19.591Z,6.93
2019-02-18T09:45:48.521Z,6.60
2019-02-18T09:48:17.620Z,7.37
2019-02-18T09:50:47.046Z,6.70
2019-02-18T09:53:16.309Z,6.43
2019-02-18T09:55:45.830Z,7.00
2019-02-18T09:58:14.971Z,7.00
2019-02-18T10:00:44.006Z,6.87
2019-02-18T10:03:12.903Z,6.80
2019-02-18T10:05:41.850Z,6.37
2019-02-18T10:08:11.140Z,6.90
2019-02-18T10:10:40.169Z,6.90
2019-02-18T10:13:09.249Z,6.30
2019-02-18T10:15:38.239Z,6.60
2019-02-18T10:18:07.261Z,6.40
2019-02-18T10:20:36.276Z,6.60
2019-02-18T10:23:05.516Z,6.33
2019-02-18T10:25:34.620Z,6.27
2019-02-18T10:28:03.599Z,6.07
2019-02-18T10:30:32.590Z,6.77
2019-02-18T10:33:02.052Z,6.07
2019-02-18T10:35:31.019Z,6.70
2019-02-18T10:38:00.254Z,7.33
2019-02-18T10:40:29.552Z,6.80
2019-02-18T10:42:58.785Z,6.87
2019-02-18T10:45:27.899Z,6.07
2019-02-18T10:47:57.153Z,6.87
2019-02-18T10:50:26.229Z,6.90
2019-02-18T10:52:55.323Z,6.60
2019-02-18T10:55:24.618Z,6.57
2019-02-18T10:57:53.713Z,6.20
2019-02-18T11:00:23.042Z,6.97
2019-02-18T11:02:52.468Z,7.07
2019-02-18T11:05:21.694Z,7.10
2019-02-18T11:07:51.177Z,6.80
2019-02-18T11:10:20.375Z,6.40
2019-02-18T11:12:49.744Z,6.40
2019-02-18T11:15:18.957Z,6.17
2019-02-18T11:17:48.555Z,6.93
2019-02-18T11:20:17.819Z,6.47
2019-02-18T11:22:46.862Z,6.30
2019-02-18T11:25:16.362Z,6.20
2019-02-18T11:27:45.563Z,7.70
2019-02-18T11:30:14.967Z,6.23
2019-02-18T11:32:44.021Z,7.27
2019-02-18T11:35:13.334Z,7.10
2019-02-18T11:37:42.330Z,6.23
2019-02-18T11:40:13.537Z,6.37
2019-02-18T11:42:42.982Z,6.00
2019-02-18T11:45:13.344Z,5.80
2019-02-18T11:47:42.395Z,6.53
2019-02-18T11:50:12.793Z,5.83
2019-02-18T11:52:41.949Z,6.73
2019-02-18T11:55:11.416Z,6.13
2019-02-18T11:57:40.817Z,5.93
2019-02-18T12:00:11.533Z,6.03
2019-02-18T12:02:40.696Z,6.10
2019-02-18T12:05:10.308Z,6.77
2019-02-18T12:07:39.433Z,6.50
2019-02-18T12:10:10.150Z,6.27
2019-02-18T12:12:39.842Z,5.83
2019-02-18T12:15:10.088Z,6.27
2019-02-18T12:17:39.838Z,6.13
2019-02-18T12:20:11.688Z,6.80
2019-02-18T12:22:41.086Z,6.53
2019-02-18T12:25:10.256Z,6.20
2019-02-18T12:27:40.255Z,5.60
2019-02-18T12:30:10.855Z,5.50
2019-02-18T12:32:40.138Z,6.23
2019-02-18T12:35:09.239Z,5.90
2019-02-18T12:37:38.739Z,5.33
2019-02-18T12:40:08.438Z,5.70
2019-02-18T12:42:37.709Z,6.40
2019-02-18T12:45:07.504Z,5.40
2019-02-18T12:47:36.607Z,5.53
2019-02-18T12:50:06.259Z,5.93
2019-02-18T12:52:35.383Z,6.33
2019-02-18T12:55:04.533Z,5.53
2019-02-18T12:57:34.147Z,5.93
2019-02-18T13:00:03.458Z,5.77
2019-02-18T13:02:43.349Z,6.17
2019-02-18T13:05:05.606Z,6.27
2019-02-18T13:07:35.360Z,5.23
2019-02-18T13:10:05.500Z,5.13
2019-02-18T13:12:34.677Z,5.13
2019-02-18T13:15:04.565Z,5.50
2019-02-18T13:17:33.634Z,6.60
2019-02-18T13:20:02.737Z,5.67
2019-02-18T13:22:31.786Z,6.83
2019-02-18T13:25:00.818Z,9.03
2019-02-18T13:27:30.097Z,6.00
2019-02-18T13:29:59.457Z,6.13
2019-02-18T13:32:28.580Z,5.50
2019-02-18T13:34:57.620Z,5.73
2019-02-18T13:37:26.714Z,5.57
2019-02-18T13:39:55.682Z,6.40
2019-02-18T13:42:24.686Z,6.03
2019-02-18T13:44:53.732Z,7.43
2019-02-18T13:47:22.980Z,5.73
2019-02-18T13:49:52.104Z,6.17
2019-02-18T13:52:21.420Z,5.47
2019-02-18T13:54:51.276Z,5.23
2019-02-18T13:57:20.344Z,6.00
2019-02-18T13:59:49.718Z,5.63
2019-02-18T14:02:19.219Z,4.90
2019-02-18T14:04:48.656Z,5.13
2019-02-18T14:07:17.611Z,4.47
2019-02-18T14:09:46.932Z,4.30
2019-02-18T14:12:16.499Z,4.70
2019-02-18T14:14:45.619Z,4.07
2019-02-18T14:17:14.920Z,3.93
2019-02-18T14:19:44.118Z,5.37
2019-02-18T14:22:13.162Z,4.07
2019-02-18T14:24:42.302Z,4.53
2019-02-18T14:27:11.627Z,4.43
2019-02-18T14:29:40.704Z,4.17
2019-02-18T14:32:10.193Z,3.67
2019-02-18T14:34:39.258Z,4.67
2019-02-18T14:37:08.368Z,4.53
2019-02-18T14:39:37.621Z,3.30
2019-02-18T14:42:06.644Z,4.17
2019-02-18T14:44:36.509Z,4.40
2019-02-18T14:47:06.015Z,4.00
2019-02-18T14:49:35.204Z,3.97
2019-02-18T14:52:04.234Z,3.83
2019-02-18T14:54:33.446Z,3.20
2019-02-18T14:57:02.822Z,2.60
2019-02-18T14:59:32.152Z,2.50
2019-02-18T15:02:02.019Z,2.00
2019-02-18T15:04:31.206Z,2.30
2019-02-18T15:07:00.193Z,2.30
2019-02-18T15:09:29.209Z,2.13
2019-02-18T15:11:58.343Z,2.57
2019-02-18T15:14:27.382Z,3.00
2019-02-18T15:16:57.163Z,2.60
2019-02-18T15:19:26.563Z,3.03
2019-02-18T15:21:55.691Z,3.13
2019-02-18T15:24:24.898Z,2.80
2019-02-18T15:26:53.856Z,3.00
2019-02-18T15:29:23.324Z,3.10
2019-02-18T15:31:52.757Z,3.33
2019-02-18T15:34:21.864Z,3.00
2019-02-18T15:36:51.230Z,3.20
2019-02-18T15:39:20.621Z,3.27
2019-02-18T15:41:49.668Z,3.23
2019-02-18T15:44:20.307Z,3.23
2019-02-18T15:46:50.253Z,3.90
2019-02-18T15:49:19.709Z,3.77
2019-02-18T15:51:48.735Z,3.30
2019-02-18T15:54:17.879Z,3.10
2019-02-18T15:56:47.053Z,3.70
2019-02-18T15:59:16.121Z,3.53
2019-02-18T16:01:45.183Z,3.90
2019-02-18T16:04:14.227Z,4.03
2019-02-18T16:06:43.829Z,2.97
2019-02-18T16:09:13.218Z,4.47
2019-02-18T16:11:42.292Z,4.17
2019-02-18T16:14:11.638Z,3.27
2019-02-18T16:16:40.583Z,3.93
2019-02-18T16:19:09.621Z,4.00
2019-02-18T16:21:38.949Z,4.30
2019-02-18T16:24:07.915Z,4.53
2019-02-18T16:26:37.042Z,3.67
2019-02-18T16:29:06.469Z,4.77
2019-02-18T16:31:35.729Z,4.00
2019-02-18T16:34:05.156Z,4.03
2019-02-18T16:36:34.727Z,4.10
2019-02-18T16:39:05.376Z,4.03
2019-02-18T16:41:36.306Z,3.83
2019-02-18T16:44:06.087Z,4.40
2019-02-18T16:46:35.220Z,4.10
2019-02-18T16:49:04.766Z,4.10
2019-02-18T16:51:33.880Z,4.63
2019-02-18T16:54:03.049Z,5.30
2019-02-18T16:56:32.184Z,4.40
2019-02-18T16:59:02.197Z,4.67
2019-02-18T17:01:31.325Z,5.27
2019-02-18T17:04:00.622Z,4.10
2019-02-18T17:06:30.087Z,4.47
2019-02-18T17:08:59.082Z,4.73
2019-02-18T17:11:28.456Z,4.30
2019-02-18T17:13:57.957Z,4.77
2019-02-18T17:16:27.199Z,4.50
2019-02-18T17:18:57.186Z,5.20
2019-02-18T17:21:26.604Z,5.00
2019-02-18T17:23:56.341Z,4.73
2019-02-18T17:26:25.635Z,4.97
2019-02-18T17:28:55.077Z,4.60
2019-02-18T17:31:24.091Z,4.93
2019-02-18T17:33:53.132Z,4.50
2019-02-18T17:36:22.501Z,4.80
2019-02-18T17:38:52.464Z,4.90
2019-02-18T17:41:21.636Z,4.53
2019-02-18T17:43:51.893Z,4.90
2019-02-18T17:46:21.219Z,6.00
2019-02-18T17:48:50.170Z,5.07
2019-02-18T17:51:19.249Z,5.80
2019-02-18T17:53:48.250Z,6.17
2019-02-18T17:56:17.375Z,4.73
2019-02-18T17:58:46.968Z,7.90
2019-02-18T18:01:16.565Z,7.37
2019-02-18T18:03:45.716Z,6.57
2019-02-18T18:06:14.888Z,5.77
2019-02-18T18:08:44.002Z,5.13
2019-02-18T18:11:24.163Z,5.43
2019-02-18T18:13:53.673Z,4.50
2019-02-18T18:16:22.883Z,4.40
2019-02-18T18:18:52.029Z,5.23
2019-02-18T18:21:21.139Z,6.03
2019-02-18T18:23:50.751Z,5.93
2019-02-18T18:26:20.200Z,5.43
2019-02-18T18:28:49.391Z,5.07
2019-02-18T18:31:18.528Z,5.37
2019-02-18T18:33:47.630Z,5.97
2019-02-18T18:36:17.120Z,5.67
2019-02-18T18:38:46.557Z,5.37
2019-02-18T18:41:15.870Z,6.07
2019-02-18T18:43:45.327Z,6.23
2019-02-18T18:46:14.684Z,5.33
2019-02-18T18:48:44.702Z,5.20
2019-02-18T18:51:14.082Z,5.43
2019-02-18T18:53:43.453Z,5.67
2019-02-18T18:56:12.740Z,5.90
2019-02-18T18:58:42.137Z,5.57
2019-02-18T19:01:11.669Z,6.20
2019-02-18T19:03:40.947Z,7.00
2019-02-18T19:06:10.068Z,5.00
2019-02-18T19:08:39.454Z,6.10
2019-02-18T19:11:08.580Z,5.87
2019-02-18T19:13:42.149Z,5.73
2019-02-18T19:16:08.158Z,5.23
2019-02-18T19:18:37.245Z,5.33
2019-02-18T19:21:06.226Z,5.70
2019-02-18T19:23:35.234Z,5.43
2019-02-18T19:26:04.442Z,5.33
2019-02-18T19:28:33.525Z,5.77
2019-02-18T19:31:02.694Z,5.80
2019-02-18T19:33:32.346Z,5.87
2019-02-18T19:36:01.595Z,5.63
2019-02-18T19:38:31.037Z,6.07
2019-02-18T19:41:00.739Z,6.13
2019-02-18T19:43:29.997Z,6.03
2019-02-18T19:45:59.356Z,5.53
2019-02-18T19:48:28.442Z,5.60
2019-02-18T19:50:57.965Z,5.97
2019-02-18T19:53:27.513Z,5.43
2019-02-18T19:55:56.917Z,5.37
2019-02-18T19:58:26.547Z,6.57
2019-02-18T20:00:55.637Z,7.43
2019-02-18T20:03:24.956Z,12.73
2019-02-18T20:05:54.280Z,6.20
2019-02-18T20:08:23.339Z,5.33
2019-02-18T20:10:52.292Z,5.57
2019-02-18T20:13:21.267Z,5.50
2019-02-18T20:15:50.881Z,5.83
2019-02-18T20:18:20.568Z,7.00
2019-02-18T20:20:49.687Z,7.63
2019-02-18T20:23:19.090Z,6.43
2019-02-18T20:25:48.408Z,7.37
2019-02-18T20:28:18.276Z,7.47
2019-02-18T20:30:47.714Z,7.90
2019-02-18T20:33:17.000Z,7.73
2019-02-18T20:35:46.376Z,12.57
2019-02-18T20:38:16.372Z,7.63
2019-02-18T20:40:45.727Z,8.00
2019-02-18T20:43:14.860Z,7.30
2019-02-18T20:45:44.516Z,8.07
2019-02-18T20:48:13.817Z,8.17
2019-02-18T20:50:43.412Z,6.80
2019-02-18T20:53:12.434Z,9.43
2019-02-18T20:55:41.320Z,8.97
2019-02-18T20:58:10.269Z,8.13
2019-02-18T21:00:39.358Z,7.13
2019-02-18T21:03:08.448Z,9.30
2019-02-18T21:05:37.597Z,7.07
2019-02-18T21:08:07.601Z,7.03
2019-02-18T21:10:37.089Z,7.17
2019-02-18T21:13:06.418Z,8.30
2019-02-18T21:15:35.699Z,6.20
2019-02-18T21:18:05.034Z,5.60
2019-02-18T21:20:34.270Z,5.33
2019-02-18T21:23:03.628Z,6.00
2019-02-18T21:25:32.570Z,5.90
2019-02-18T21:28:01.762Z,5.50
2019-02-18T21:30:31.078Z,6.93
2019-02-18T21:33:00.294Z,5.63
2019-02-18T21:35:29.503Z,5.73
2019-02-18T21:37:58.865Z,7.93
2019-02-18T21:40:27.836Z,8.03
2019-02-18T21:42:56.806Z,6.47
2019-02-18T21:45:25.840Z,7.80
2019-02-18T21:47:55.069Z,4.97
2019-02-18T21:50:24.372Z,5.70
2019-02-18T21:52:54.358Z,8.50
2019-02-18T21:55:23.786Z,8.87
2019-02-18T21:57:53.333Z,14.90
2019-02-18T22:00:23.356Z,10.53
2019-02-18T22:02:52.513Z,14.83
2019-02-18T22:05:22.341Z,5.97
2019-02-18T22:07:52.367Z,6.70
2019-02-18T22:10:21.776Z,6.40
2019-02-18T22:12:51.016Z,6.40
2019-02-18T22:15:19.981Z,6.27
2019-02-18T22:17:49.213Z,10.07
2019-02-18T22:20:18.756Z,6.23
2019-02-18T22:22:47.851Z,5.60
2019-02-18T22:25:17.658Z,8.10
2019-02-18T22:27:47.651Z,6.83
2019-02-18T22:30:16.824Z,6.90
2019-02-18T22:32:46.151Z,9.60
2019-02-18T22:35:15.971Z,8.43
2019-02-18T22:37:45.022Z,25.10
2019-02-18T22:40:14.025Z,32.03
2019-02-18T22:42:43.071Z,9.27
2019-02-18T22:45:12.139Z,8.20
2019-02-18T22:47:41.148Z,6.47
2019-02-18T22:50:10.691Z,6.20
2019-02-18T22:52:40.042Z,5.97
2019-02-18T22:55:09.354Z,7.00
2019-02-18T22:57:38.584Z,6.90
2019-02-18T23:00:22.964Z,7.57
2019-02-18T23:02:51.973Z,8.43
2019-02-18T23:05:21.005Z,7.63
2019-02-18T23:07:50.690Z,6.50
2019-02-18T23:10:19.629Z,6.03
2019-02-18T23:12:48.939Z,7.10
2019-02-18T23:15:18.281Z,5.90
2019-02-18T23:17:47.327Z,6.70
2019-02-18T23:20:16.651Z,5.93
2019-02-18T23:22:46.389Z,5.77
2019-02-18T23:25:15.718Z,5.93
2019-02-18T23:27:45.004Z,5.17
2019-02-18T23:30:14.044Z,5.33
2019-02-18T23:32:43.258Z,4.67
2019-02-18T23:35:12.828Z,5.00
2019-02-18T23:37:41.861Z,4.83
2019-02-18T23:40:11.128Z,5.23
2019-02-18T23:42:40.688Z,5.13
2019-02-18T23:45:09.747Z,4.93
2019-02-18T23:47:39.036Z,5.50
2019-02-18T23:50:08.365Z,9.37
2019-02-18T23:52:37.333Z,4.83
2019-02-18T23:55:06.338Z,5.10
2019-02-18T23:57:35.798Z,4.70
